Latest Coastal Weather Observations for Redcliffe

IDQ60701

Issued at 5:51 am EST Wednesday 29 April 2015 (issued every 10 minutes, with the page automatically refreshed every 10 minutes)

About coastal observations | Map of coastal stations | Coastal observations for QLD | Marine services | Other Formats
Station Details ID: 040958 Name: REDCLIFFE Lat: -27.22 Lon: 153.09 Height: 12.6 m
Data from the previous 72 hours. | See also: Recent months at Redcliffe
Date/Time
EST
Temp

°C
Wind Pressure Rain
since 9am
mm
Weather Cloud Vis
km
Sea
Height
m
Swell
Dir
 
Speed
knots
Gust
knots
hPa Trend Height
m
Period
s
Dir
29/05:30am 16.6 SSW 11 14 1023.6 - - - - - - - - -
29/05:00am 16.7 SSW 12 17 1023.5 - - - - - - - - -
29/04:30am 16.9 S 15 18 1023.0 - - - - - - - - -
29/04:00am 16.2 S 11 16 1022.7 - - - - - - - - -
29/03:30am 15.9 SSW 9 12 1022.6 - - - - - - - - -
29/03:00am 16.1 SSW 8 10 1022.4 - - - - - - - - -
29/02:30am 16.2 SSW 7 9 1022.5 - - - - - - - - -
29/02:00am 16.6 S 11 14 1022.6 - - - - - - - - -
29/01:30am 17.3 S 13 15 1022.7 - - - - - - - - -
29/01:00am 17.6 S 15 17 1022.7 - - - - - - - - -
29/12:30am 17.9 S 13 16 1022.9 - - - - - - - - -
29/12:00am 18.4 S 15 17 1022.9 - - - - - - - - -
 
Date/Time
EST
Temp

°C
Wind Pressure Rain
since 9am
mm
Weather Cloud Vis
km
Sea
Height
m
Swell
Dir
 
Speed
knots
Gust
knots
hPa Trend Height
m
Period
s
Dir
28/11:30pm 18.6 S 14 16 1022.9 - - - - - - - - -
28/11:00pm 18.9 SSE 15 17 1022.9 - - - - - - - - -
28/10:30pm 19.3 SSE 16 18 1022.9 - - - - - - - - -
28/10:00pm 19.8 SSE 14 16 1023.0 - - - - - - - - -
28/09:30pm 20.0 SSE 17 20 1023.0 - 0.0 - - - - - - -
28/09:00pm 20.3 SE 13 16 1023.1 - 0.0 - - - - - - -
28/08:30pm 20.3 ESE 15 18 1022.9 - 0.0 - - - - - - -
28/08:00pm 20.5 SSE 17 20 1022.6 - 0.0 - - - - - - -
28/07:30pm 20.5 SSE 14 16 1022.3 - 0.0 - - - - - - -
28/07:00pm 21.1 SSE 17 19 1022.1 - 0.0 - - - - - - -
28/06:30pm 21.6 SSE 16 18 1021.5 - 0.0 - - - - - - -
28/06:00pm 21.5 SE 16 19 1021.1 - 0.0 - - - - - - -
28/05:30pm 21.5 SSE 15 17 1020.8 - 0.0 - - - - - - -
28/05:00pm 21.8 SSE 16 18 1020.4 - 0.0 - - - - - - -
28/04:30pm 22.1 SE 15 17 1020.2 - 0.0 - - - - - - -
28/04:00pm 22.3 SE 15 18 1020.0 - 0.0 - - - - - - -
28/03:30pm 22.6 SE 15 18 1019.9 - 0.0 - - - - - - -
28/03:00pm 22.9 SE 15 18 1020.0 - 0.0 - - - - - - -
28/02:30pm 23.1 SE 15 18 1019.9 - 0.0 - - - - - - -
28/02:00pm 22.9 SE 15 17 1020.0 - 0.0 - - - - - - -
28/01:30pm 23.0 SE 15 17 1020.2 - 0.0 - - - - - - -
28/01:00pm 22.9 SE 15 17 1020.5 - 0.0 - - - - - - -
28/12:30pm 22.8 SE 15 17 1020.8 - 0.0 - - - - - - -
28/12:00pm 23.1 SSE 15 17 1021.2 - 0.0 - - - - - - -
28/11:30am 22.7 SSE 16 18 1021.6 - 0.0 - - - - - - -
28/11:00am 22.5 SSE 11 14 1022.0 - 0.0 - - - - - - -
28/10:30am 22.8 S 12 14 1022.2 - 0.0 - - - - - - -
28/10:00am 22.1 S 12 15 1022.5 - 0.0 - - - - - - -
28/09:30am 21.5 S 13 15 1022.5 - 0.0 - - - - - - -
28/09:00am 20.7 SSW 11 15 1022.3 - 0.0 - - - - - - -
28/08:30am 19.8 SSW 9 13 1022.2 - 0.0 - - - - - - -
28/08:00am 18.6 SW 9 14 1021.9 - 0.0 - - - - - - -
28/07:30am 17.4 SSW 8 11 1021.5 - 0.0 - - - - - - -
28/07:00am 16.0 SSW 8 10 1021.1 - 0.0 - - - - - - -
28/06:30am 15.2 SW 8 11 1020.8 - 0.0 - - - - - - -
28/06:00am 14.9 SSW 7 10 1020.4 - 0.0 - - - - - - -
28/05:30am 14.9 SW 6 8 1020.0 - 0.0 - - - - - - -
28/05:00am 15.1 SW 6 8 1019.6 - 0.0 - - - - - - -
28/04:30am 15.3 SW 5 7 1019.3 - 0.0 - - - - - - -
28/04:00am 15.4 WSW 6 7 1019.4 - 0.0 - - - - - - -
28/03:30am 15.9 SW 7 9 1019.0 - 0.0 - - - - - - -
28/03:00am 15.7 SW 6 7 1019.0 - 0.0 - - - - - - -
28/02:30am 15.5 SW 7 9 1018.9 - 0.0 - - - - - - -
28/02:00am 15.4 SW 8 9 1019.2 - 0.0 - - - - - - -
28/01:30am 15.3 WSW 7 8 1019.3 - 0.0 - - - - - - -
28/01:00am 15.5 WSW 7 9 1019.2 - 0.0 - - - - - - -
28/12:30am 15.6 WSW 8 9 1019.3 - 0.0 - - - - - - -
28/12:00am 16.0 WSW 8 9 1019.5 - 0.0 - - - - - - -
 
Date/Time
EST
Temp

°C
Wind Pressure Rain
since 9am
mm
Weather Cloud Vis
km
Sea
Height
m
Swell
Dir
 
Speed
knots
Gust
knots
hPa Trend Height
m
Period
s
Dir
27/11:30pm 16.1 SW 8 9 1019.6 - 0.0 - - - - - - -
27/11:00pm 16.2 WSW 7 9 1019.5 - 0.0 - - - - - - -
27/10:30pm 16.3 WSW 6 8 1019.5 - 0.0 - - - - - - -
27/10:00pm 16.5 WSW 6 8 1019.5 - 0.0 - - - - - - -
27/09:30pm 17.2 WSW 7 9 1019.4 - 0.0 - - - - - - -
27/09:00pm 16.8 SW 5 9 1019.5 - 0.0 - - - - - - -
27/08:30pm 18.7 ENE 6 8 1019.2 - 0.0 - - - - - - -
27/08:00pm 18.9 E 7 8 1018.9 - 0.0 - - - - - - -
27/07:30pm 19.9 E 7 8 1018.6 - 0.0 - - - - - - -
27/07:00pm 20.3 E 8 10 1018.2 - 0.0 - - - - - - -
27/06:30pm 20.4 E 8 10 1017.6 - 0.0 - - - - - - -
27/06:00pm 20.6 ENE 9 10 1017.3 - 0.0 - - - - - - -
27/05:30pm 20.9 ENE 8 9 1016.9 - 0.0 - - - - - - -
27/05:00pm 21.4 ENE 8 10 1016.8 - 0.0 - - - - - - -
27/04:30pm 21.7 E 8 9 1016.6 - 0.0 - - - - - - -
27/04:00pm 21.9 E 8 9 1016.2 - 0.0 - - - - - - -
27/03:30pm 22.1 E 9 10 1015.9 - 0.0 - - - - - - -
27/03:00pm 22.2 E 9 10 1015.8 - 0.0 - - - - - - -
27/02:30pm 22.6 ESE 9 10 1015.8 - 0.0 - - - - - - -
27/02:00pm 22.4 ESE 8 9 1015.7 - 0.0 - - - - - - -
27/01:30pm 22.9 ESE 7 8 1015.9 - 0.0 - - - - - - -
27/01:00pm 22.5 SE 7 8 1016.0 - 0.0 - - - - - - -
27/12:30pm 22.8 SSE 8 9 1016.4 - 0.0 - - - - - - -
27/12:00pm 22.6 SSE 8 9 1016.7 - 0.0 - - - - - - -
27/11:30am 22.6 S 9 10 1017.1 - 0.0 - - - - - - -
27/11:00am 23.2 S 9 13 1017.5 - 0.0 - - - - - - -
27/10:30am 22.1 SSW 8 13 1017.8 - 0.0 - - - - - - -
27/10:00am 21.6 SSW 8 11 1017.9 - 0.0 - - - - - - -
27/09:30am 20.3 SW 10 14 1018.0 - 0.0 - - - - - - -
27/09:00am 19.6 SW 10 14 1017.9 - 0.0 - - - - - - -
27/08:30am 18.1 SW 8 11 1017.8 - 0.0 - - - - - - -
27/08:00am 16.7 WSW 8 11 1017.7 - 0.0 - - - - - - -
27/07:30am 15.1 WSW 7 10 1017.4 - 0.0 - - - - - - -
27/07:00am 13.8 WSW 7 9 1017.2 - 0.0 - - - - - - -
27/06:30am 13.0 WSW 6 7 1016.8 - 0.0 - - - - - - -
27/06:00am 12.9 WSW 8 10 1016.5 - 0.0 - - - - - - -
27/05:30am 13.0 WSW 6 7 1016.2 - 0.0 - - - - - - -
27/05:00am 13.2 W 6 7 1015.9 - 0.0 - - - - - - -
27/04:30am 14.3 W 5 8 1015.7 - 0.0 - - - - - - -
27/04:00am 13.4 W 4 5 1015.4 - 0.0 - - - - - - -
27/03:30am 13.4 WNW 4 5 1015.3 - 0.0 - - - - - - -
27/03:00am 14.0 WSW 6 8 1015.3 - 0.0 - - - - - - -
27/02:30am 14.5 WSW 7 8 1015.0 - 0.0 - - - - - - -
27/02:00am 14.6 W 6 7 1015.0 - 0.0 - - - - - - -
27/01:30am 14.7 WSW 6 7 1015.0 - 0.0 - - - - - - -
27/01:00am 15.1 WSW 5 7 1015.1 - 0.0 - - - - - - -
27/12:30am 15.3 WSW 7 10 1015.2 - 0.0 - - - - - - -
27/12:00am 15.4 WSW 8 13 1015.5 - 0.0 - - - - - - -
 
Date/Time
EST
Temp

°C
Wind Pressure Rain
since 9am
mm
Weather Cloud Vis
km
Sea
Height
m
Swell
Dir
 
Speed
knots
Gust
knots
hPa Trend Height
m
Period
s
Dir
26/11:30pm 16.3 WSW 10 15 1015.5 - 0.0 - - - - - - -
26/11:00pm 16.5 SW 11 15 1015.7 - 0.0 - - - - - - -
26/10:30pm 16.6 SW 12 17 1015.6 - 0.0 - - - - - - -
26/10:00pm 17.3 SW 13 17 1015.6 - 0.0 - - - - - - -
26/09:30pm 17.1 SW 10 17 1016.0 - 0.0 - - - - - - -
26/09:00pm 17.6 WSW 12 16 1015.4 - 0.0 - - - - - - -
26/08:30pm 17.6 W 7 12 1015.6 - 0.0 - - - - - - -
26/08:00pm 17.9 W 11 17 1015.4 - 0.0 - - - - - - -
26/07:30pm 18.4 W 12 19 1014.9 - 0.0 - - - - - - -
26/07:00pm 18.3 W 10 16 1014.9 - 0.0 - - - - - - -
26/06:30pm 18.5 WSW 10 14 1014.2 - 0.0 - - - - - - -
26/06:00pm 18.7 W 8 11 1013.8 - 0.0 - - - - - - -
26/05:30pm 19.0 WSW 12 22 1013.2 - 0.0 - - - - - - -
26/05:00pm 20.1 WSW 10 15 1012.5 - 0.0 - - - - - - -
26/04:30pm 20.7 WSW 14 20 1011.8 - 0.0 - - - - - - -
26/04:05pm 21.2 W 15 25 1011.2 - 0.0 - - - - - - -
26/04:00pm 21.3 W 14 21 1011.2 - 0.0 - - - - - - -
26/03:30pm 22.2 WSW 17 23 1011.3 - 0.0 - - - - - - -
26/03:00pm 22.2 WSW 14 23 1010.4 - 0.0 - - - - - - -
26/02:30pm 22.4 WSW 16 24 1010.4 - 0.0 - - - - - - -
26/02:09pm 22.8 WSW 15 27 1010.2 - 0.0 - - - - - - -
26/02:00pm 22.8 WSW 16 25 1010.1 - 0.0 - - - - - - -
26/01:30pm 22.4 SW 16 26 1010.2 - 0.0 - - - - - - -
26/01:27pm 22.6 WSW 15 26 1010.2 - 0.0 - - - - - - -
26/01:00pm 22.5 WSW 16 24 1010.0 - 0.0 - - - - - - -
26/12:40pm 22.7 W 15 25 1010.0 - 0.0 - - - - - - -
26/12:30pm 22.1 W 12 22 1009.8 - 0.0 - - - - - - -
26/12:00pm 22.0 W 16 27 1009.9 - 0.0 - - - - - - -
26/11:42am 21.8 W 16 26 1009.9 - 0.0 - - - - - - -
26/11:30am 22.1 W 15 23 1010.2 - 0.0 - - - - - - -
26/11:00am 21.1 W 12 19 1010.7 - 0.0 - - - - - - -
26/10:30am 21.1 WNW 15 19 1011.3 - 0.0 - - - - - - -
26/10:00am 19.8 W 13 21 1011.6 - 0.0 - - - - - - -
26/09:30am 19.2 WSW 15 25 1012.2 - 0.0 - - - - - - -
26/09:00am 19.0 WSW 17 29 1012.5 - 0.0 - - - - - - -
26/08:49am 18.9 WSW 15 26 1012.4 - 0.0 - - - - - - -
26/08:30am 18.8 WSW 14 21 1012.5 - 0.0 - - - - - - -
26/08:00am 18.7 WSW 15 22 1012.5 - 0.0 - - - - - - -
26/07:30am 18.4 WSW 13 22 1012.3 - 0.0 - - - - - - -
26/07:00am 18.2 WSW 15 20 1012.0 - 0.0 - - - - - - -
26/06:30am 18.0 WSW 14 20 1011.5 - 0.0 - - - - - - -
26/06:00am 18.4 WSW 13 18 1011.4 - 0.0 - - - - - - -

Other Formats:

Comma delimited format used in spreadsheet applications
http://www.bom.gov.au/fwo/IDQ60701/IDQ60701.95591.axf

JavaScript Object Notation format (JSON) in row-major order
http://www.bom.gov.au/fwo/IDQ60701/IDQ60701.95591.json